Time;durP1;ratioP1;P1;durP2;ratioP2;P2;SDS_P1;SDS_P2;PMS_P1;PMS_P2;Temp;Humidity;BMP_temperature;BMP_pressure;BME280_temperature;BME280_humidity;BME280_pressure;Samples;Min_cycle;Max_cycle;Signal;HPM_P1;HPM_P2
2023/06/17 00:01:48;;;;;;;28.35;2.20;;;;;;;24.29;56.87;99236.28;7311447;19;129798;-33
2023/06/17 00:04:14;;;;;;;36.77;2.83;;;;;;;24.29;56.59;99220.50;7313104;19;130401;-36
2023/06/17 00:06:39;;;;;;;30.98;2.40;;;;;;;24.33;57.08;99229.69;7312171;19;129684;-40
2023/06/17 00:09:04;;;;;;;42.80;3.07;;;;;;;24.31;56.76;99229.03;7312736;19;129957;-36
2023/06/17 00:11:30;;;;;;;32.37;2.70;;;;;;;24.32;56.63;99230.69;7313710;19;129578;-41
2023/06/17 00:13:56;;;;;;;55.93;3.97;;;;;;;24.31;57.01;99234.28;7312953;19;129371;-35
2023/06/17 00:16:22;;;;;;;24.65;1.98;;;;;;;24.32;56.91;99230.69;7311234;19;129644;-41
2023/06/17 00:18:47;;;;;;;34.85;2.55;;;;;;;24.32;57.31;99220.16;7311745;19;129566;-39
2023/06/17 00:21:14;;;;;;;23.67;2.03;;;;;;;24.31;56.54;99226.41;7310627;19;130317;-39
2023/06/17 00:23:39;;;;;;;42.70;3.03;;;;;;;24.34;56.47;99226.09;7312423;19;130775;-42
2023/06/17 00:26:04;;;;;;;34.50;2.67;;;;;;;24.33;57.00;99229.69;7311984;19;129381;-41
2023/06/17 00:28:30;;;;;;;28.17;2.20;;;;;;;24.32;56.48;99225.44;7313017;19;129451;-41
2023/06/17 00:30:55;;;;;;;29.97;2.47;;;;;;;24.34;56.63;99218.22;7310282;19;129213;-41
2023/06/17 00:33:20;;;;;;;23.87;1.97;;;;;;;24.34;56.62;99217.38;7313429;19;129042;-41
2023/06/17 00:35:45;;;;;;;54.95;3.58;;;;;;;24.31;56.74;99218.50;7311885;19;129418;-39
2023/06/17 00:38:11;;;;;;;12.17;1.20;;;;;;;24.32;57.12;99214.91;7311314;19;129424;-36
2023/06/17 00:40:36;;;;;;;37.03;3.08;;;;;;;24.31;56.82;99223.75;7310496;19;130745;-39
2023/06/17 00:43:02;;;;;;;34.85;2.70;;;;;;;24.32;56.52;99220.16;7311154;19;129346;-42
2023/06/17 00:45:27;;;;;;;71.13;4.57;;;;;;;24.31;57.00;99213.25;7311158;19;129276;-43
2023/06/17 00:47:53;;;;;;;36.47;2.60;;;;;;;24.26;56.96;99205.06;7312770;19;129203;-43
2023/06/17 00:50:19;;;;;;;25.75;2.20;;;;;;;24.29;56.45;99215.25;7310874;19;129353;-41
2023/06/17 00:52:45;;;;;;;28.93;2.20;;;;;;;24.30;57.14;99205.53;7311806;19;129053;-39
2023/06/17 00:55:11;;;;;;;;;;;;;;;24.27;56.59;99196.19;7311059;19;129284;-42
2023/06/17 00:57:38;;;;;;;38.03;2.53;;;;;;;24.29;56.88;99215.25;7309884;19;130163;-42
2023/06/17 01:00:06;;;;;;;54.92;3.80;;;;;;;24.30;56.92;99216.88;7308240;19;129829;-40
2023/06/17 01:02:32;;;;;;;30.15;2.25;;;;;;;24.29;57.24;99214.44;7310574;19;129007;-43
2023/06/17 01:05:01;;;;;;;34.50;2.47;;;;;;;24.31;56.81;99213.25;7311397;19;128867;-39
2023/06/17 01:07:42;;;;;;;26.52;2.05;;;;;;;24.30;56.91;99211.63;7308823;19;130792;-38
2023/06/17 01:10:26;;;;;;;24.27;2.05;;;;;;;24.28;57.25;99212.75;7311676;19;130560;-37
2023/06/17 01:12:54;;;;;;;21.73;1.67;;;;;;;24.29;57.00;99209.16;7310559;19;129078;-36
2023/06/17 01:15:21;;;;;;;49.30;3.38;;;;;;;24.29;56.68;99204.75;7310989;19;129021;-42
2023/06/17 01:17:47;;;;;;;33.10;2.38;;;;;;;24.27;57.17;99198.84;7310883;19;130264;-43
2023/06/17 01:20:13;;;;;;;44.80;3.17;;;;;;;24.31;56.67;99200.13;7311561;19;129328;-41
2023/06/17 01:22:40;;;;;;;38.95;2.83;;;;;;;24.29;56.27;99201.28;7309011;19;129277;-40
2023/06/17 01:25:06;;;;;;;;;;;;;;;24.34;57.08;99189.31;7312145;19;128908;-39
2023/06/17 01:27:33;;;;;;;38.80;2.83;;;;;;;24.22;56.90;99180.13;7307443;19;129195;-44
2023/06/17 01:29:59;;;;;;;41.40;2.95;;;;;;;24.20;56.69;99189.97;7311311;19;129845;-42
2023/06/17 01:32:24;;;;;;;23.60;2.10;;;;;;;24.28;57.12;99200.47;7310109;19;129169;-39
2023/06/17 01:35:03;;;;;;;22.20;1.83;;;;;;;24.31;57.07;99192.25;7312249;19;129203;-41
2023/06/17 01:37:34;;;;;;;26.25;2.30;;;;;;;24.29;57.31;99199.50;7306893;19;129549;-42
2023/06/17 01:40:00;;;;;;;48.15;3.35;;;;;;;24.28;56.53;99192.56;7310302;19;129182;-42
2023/06/17 01:42:31;;;;;;;32.90;2.50;;;;;;;24.30;57.11;99201.13;7310377;19;128795;-39
2023/06/17 01:45:01;;;;;;;26.73;2.05;;;;;;;24.28;57.30;99192.56;7310644;19;129415;-42
2023/06/17 01:47:26;;;;;;;22.30;2.05;;;;;;;24.21;56.60;99178.47;7307311;19;130831;-42
2023/06/17 01:49:52;;;;;;;33.67;2.30;;;;;;;24.29;56.60;99188.16;7311294;19;130097;-36
2023/06/17 01:52:17;;;;;;;36.67;2.43;;;;;;;24.30;57.11;99193.25;7315441;19;128884;-39
2023/06/17 01:54:42;;;;;;;21.40;1.80;;;;;;;24.34;57.27;99191.09;7317189;19;129656;-38
2023/06/17 01:57:08;;;;;;;30.83;2.53;;;;;;;24.32;56.72;99190.44;7314957;19;129192;-41
2023/06/17 01:59:33;;;;;;;42.30;3.03;;;;;;;24.30;56.89;99195.88;7315461;19;129146;-43
2023/06/17 02:01:58;;;;;;;35.42;2.53;;;;;;;24.32;56.84;99193.06;7315472;19;129119;-40
2023/06/17 02:04:24;;;;;;;22.87;1.90;;;;;;;24.29;57.24;99191.59;7317241;19;128883;-40
2023/06/17 02:06:51;;;;;;;25.40;1.93;;;;;;;24.22;56.86;99176.66;7314458;19;129746;-41
2023/06/17 02:09:17;;;;;;;31.67;2.42;;;;;;;24.34;56.86;99191.09;7315694;19;129537;-41
2023/06/17 02:11:42;;;;;;;33.53;2.60;;;;;;;24.31;56.23;99189.59;7315253;19;129063;-40
2023/06/17 02:14:08;;;;;;;25.47;2.00;;;;;;;24.30;56.58;99185.34;7316863;19;129168;-40
2023/06/17 02:16:33;;;;;;;25.80;2.08;;;;;;;24.28;56.91;99187.31;7314417;19;129276;-39
2023/06/17 02:18:58;;;;;;;31.93;2.27;;;;;;;24.31;56.89;99188.81;7316282;19;129197;-41
2023/06/17 02:21:24;;;;;;;36.83;2.75;;;;;;;24.28;56.91;99176.81;7314358;19;129062;-40
2023/06/17 02:23:50;;;;;;;22.27;1.80;;;;;;;24.30;56.56;99185.34;7316400;19;130003;-40
2023/06/17 02:26:18;;;;;;;23.90;2.20;;;;;;;24.30;57.26;99179.28;7314583;19;130004;-42
2023/06/17 02:28:43;;;;;;;39.38;2.67;;;;;;;24.27;56.92;99185.69;7316131;19;129685;-44
2023/06/17 02:31:09;;;;;;;32.90;2.33;;;;;;;24.32;57.07;99178.13;7314466;19;128809;-41
2023/06/17 02:33:35;;;;;;;31.97;2.40;;;;;;;24.30;56.33;99185.34;7314920;19;129314;-42
2023/06/17 02:36:01;;;;;;;23.63;1.87;;;;;;;24.20;57.00;99170.75;7315536;19;128976;-41
2023/06/17 02:38:26;;;;;;;45.83;3.03;;;;;;;24.27;56.87;99185.69;7316264;19;130252;-40
2023/06/17 02:40:52;;;;;;;11.63;1.27;;;;;;;24.28;56.99;99184.69;7315176;19;129439;-38
2023/06/17 02:43:17;;;;;;;32.42;2.40;;;;;;;24.30;56.57;99187.16;7314821;19;129267;-36
2023/06/17 02:45:42;;;;;;;26.20;1.97;;;;;;;24.28;56.53;99182.06;7314893;19;129802;-41
2023/06/17 02:48:08;;;;;;;16.73;1.60;;;;;;;24.27;56.91;99180.44;7316064;19;129261;-42
2023/06/17 02:50:33;;;;;;;53.40;3.83;;;;;;;24.29;57.55;99178.47;7315090;19;129226;-40
2023/06/17 02:52:59;;;;;;;42.00;2.90;;;;;;;24.30;56.59;99180.09;7315911;19;129452;-40
2023/06/17 02:55:27;;;;;;;44.17;2.97;;;;;;;24.26;56.64;99177.97;7314372;19;129506;-42
2023/06/17 02:57:52;;;;;;;69.32;4.45;;;;;;;24.19;56.52;99167.31;7314670;19;129640;-41
2023/06/17 03:00:17;;;;;;;61.27;4.17;;;;;;;24.25;57.31;99178.94;7313046;19;129417;-42
2023/06/17 03:02:43;;;;;;;37.90;2.50;;;;;;;24.27;56.60;99174.34;7315996;19;129003;-37
2023/06/17 03:05:09;;;;;;;44.28;2.90;;;;;;;24.30;56.99;99176.66;7314944;19;130723;-38
2023/06/17 03:07:36;;;;;;;37.15;2.53;;;;;;;24.27;57.17;99175.19;7310030;19;129480;-39
2023/06/17 03:10:02;;;;;;;34.63;2.50;;;;;;;24.25;56.88;99187.66;7314102;19;129916;-38
2023/06/17 03:12:28;;;;;;;;;;;;;;;24.38;57.35;99182.72;7314018;19;129031;-40
2023/06/17 03:14:53;;;;;;;35.67;2.43;;;;;;;24.31;56.53;99175.69;7314227;19;129346;-37
2023/06/17 03:17:18;;;;;;;33.70;2.40;;;;;;;24.28;57.03;99181.25;7312597;19;129910;-43
2023/06/17 03:19:44;;;;;;;76.87;4.87;;;;;;;24.29;56.66;99185.53;7313559;19;129542;-40
2023/06/17 03:22:09;;;;;;;4.88;0.73;;;;;;;24.30;56.68;99185.34;7308507;19;129254;-38
2023/06/17 03:24:35;;;;;;;39.23;2.67;;;;;;;24.28;57.14;99192.56;7313926;19;129271;-37
2023/06/17 03:27:00;;;;;;;21.60;1.70;;;;;;;24.27;57.41;99184.88;7311817;19;130344;-35
2023/06/17 03:29:26;;;;;;;26.43;1.97;;;;;;;24.30;56.93;99180.09;7314197;19;129003;-41
2023/06/17 03:31:56;;;;;;;30.77;2.23;;;;;;;24.29;57.02;99178.47;7313516;19;129241;-41
2023/06/17 03:34:22;;;;;;;35.28;2.45;;;;;;;24.29;57.19;99182.91;7313227;19;131052;-39
2023/06/17 03:36:47;;;;;;;37.33;2.57;;;;;;;24.26;57.08;99181.41;7312157;19;129485;-42
2023/06/17 03:39:12;;;;;;;24.17;1.83;;;;;;;24.26;57.05;99184.03;7312354;19;129403;-41
2023/06/17 03:41:38;;;;;;;18.98;1.63;;;;;;;24.27;56.56;99185.69;7310377;19;128893;-38
2023/06/17 03:44:04;;;;;;;47.05;3.00;;;;;;;24.28;56.62;99187.31;7314601;19;129426;-40
2023/06/17 03:46:29;;;;;;;25.67;1.97;;;;;;;24.26;56.88;99184.03;7312381;19;129207;-43
2023/06/17 03:48:54;;;;;;;22.33;1.70;;;;;;;24.26;57.36;99189.28;7313529;19;129673;-35
2023/06/17 03:51:20;;;;;;;29.83;2.10;;;;;;;24.18;57.13;99176.16;7312619;19;129851;-38
2023/06/17 03:53:45;;;;;;;40.90;2.78;;;;;;;24.23;57.15;99188.81;7312756;19;129257;-36
2023/06/17 03:56:10;;;;;;;11.37;1.07;;;;;;;24.16;57.22;99172.88;7309144;19;129523;-41
2023/06/17 03:58:36;;;;;;;34.17;2.47;;;;;;;24.27;57.25;99193.56;7312352;19;128971;-41
2023/06/17 04:01:01;;;;;;;38.30;2.87;;;;;;;24.27;56.53;99195.38;7312666;19;129705;-41
2023/06/17 04:03:26;;;;;;;49.67;3.27;;;;;;;24.27;57.51;99193.56;7312498;19;129096;-36
2023/06/17 04:05:52;;;;;;;23.92;1.73;;;;;;;24.26;57.35;99197.16;7313171;19;129208;-39
2023/06/17 04:08:18;;;;;;;29.33;2.17;;;;;;;24.27;56.92;99192.75;7309993;19;129252;-43
2023/06/17 04:10:47;;;;;;;35.70;2.45;;;;;;;24.25;57.42;99192.91;7312743;19;128860;-39
2023/06/17 04:13:12;;;;;;;58.58;3.47;;;;;;;24.23;57.01;99189.63;7310813;19;129394;-47
2023/06/17 04:15:37;;;;;;;23.40;1.70;;;;;;;24.26;57.33;99189.28;7313870;19;129654;-39
2023/06/17 04:18:03;;;;;;;25.50;1.87;;;;;;;24.25;56.73;99181.56;7314473;19;129157;-37
2023/06/17 04:20:29;;;;;;;75.40;5.07;;;;;;;24.28;57.03;99184.69;7310602;19;128828;-40
2023/06/17 04:22:54;;;;;;;28.20;2.30;;;;;;;24.28;57.37;99176.81;7313530;19;129033;-42
2023/06/17 04:25:20;;;;;;;8.90;0.90;;;;;;;24.27;57.03;99184.88;7310890;19;129356;-39
2023/06/17 04:27:48;;;;;;;30.08;2.17;;;;;;;24.23;56.75;99187.00;7310543;19;129056;-35
2023/06/17 04:30:15;;;;;;;43.13;2.90;;;;;;;24.23;57.03;99184.38;7311801;19;128960;-38
2023/06/17 04:32:42;;;;;;;17.15;1.40;;;;;;;24.28;57.07;99189.94;7312709;19;129514;-34
2023/06/17 04:35:09;;;;;;;25.70;2.00;;;;;;;24.26;57.11;99189.28;7310924;19;130621;-39
2023/06/17 04:37:36;;;;;;;24.55;1.85;;;;;;;24.26;56.66;99193.75;7309722;19;128803;-40
2023/06/17 04:40:10;;;;;;;44.97;2.85;;;;;;;24.27;57.04;99201.47;7310879;19;129993;-38
2023/06/17 04:42:36;;;;;;;45.03;3.05;;;;;;;24.27;56.85;99192.75;7308690;19;129322;-40
2023/06/17 04:45:02;;;;;;;20.92;1.55;;;;;;;24.24;56.86;99196.53;7312006;19;129121;-38
2023/06/17 04:47:28;;;;;;;23.95;1.73;;;;;;;24.29;56.76;99199.50;7310155;19;128821;-39
2023/06/17 04:49:54;;;;;;;39.40;2.53;;;;;;;24.17;57.43;99185.06;7310625;19;129266;-39
2023/06/17 04:52:20;;;;;;;36.15;2.55;;;;;;;24.26;57.38;99199.00;7311771;19;129502;-40
2023/06/17 04:54:46;;;;;;;99.80;6.20;;;;;;;24.27;57.16;99201.47;7311056;19;129203;-43
2023/06/17 04:57:12;;;;;;;22.57;1.60;;;;;;;24.26;56.70;99191.91;7310081;19;130018;-35
2023/06/17 04:59:37;;;;;;;16.00;1.37;;;;;;;24.28;56.84;99200.47;7312077;19;129573;-35
2023/06/17 05:02:03;;;;;;;26.63;2.00;;;;;;;24.26;57.39;99197.16;7309129;19;130132;-40
2023/06/17 05:04:29;;;;;;;21.97;1.73;;;;;;;24.26;57.12;99201.63;7312105;19;129483;-34
2023/06/17 05:06:54;;;;;;;11.00;1.30;;;;;;;24.27;57.11;99196.19;7309203;19;129200;-37
2023/06/17 05:09:20;;;;;;;64.50;3.90;;;;;;;24.27;57.49;99201.47;7312301;19;129180;-37
2023/06/17 05:11:45;;;;;;;22.23;1.77;;;;;;;24.25;57.47;99202.59;7311042;19;130484;-34
2023/06/17 05:14:11;;;;;;;36.28;2.25;;;;;;;24.27;57.29;99198.00;7312606;19;130119;-37
2023/06/17 05:16:37;;;;;;;23.40;1.80;;;;;;;24.23;56.66;99202.75;7308151;19;129070;-39
2023/06/17 05:19:02;;;;;;;49.75;3.30;;;;;;;24.15;57.03;99189.66;7312314;19;128786;-35
2023/06/17 05:21:28;;;;;;;8.10;1.00;;;;;;;24.24;56.87;99203.59;7309453;19;129453;-33
2023/06/17 05:23:53;;;;;;;35.25;2.67;;;;;;;24.23;57.26;99205.38;7313674;19;129623;-35
2023/06/17 05:26:18;;;;;;;34.33;2.47;;;;;;;24.24;57.12;99211.47;7316976;19;129393;-37
2023/06/17 05:28:44;;;;;;;45.73;3.03;;;;;;;24.25;57.44;99211.31;7319032;19;128929;-35
2023/06/17 05:31:09;;;;;;;23.83;1.73;;;;;;;24.24;57.30;99207.06;7317200;19;129602;-41
2023/06/17 05:33:35;;;;;;;26.73;2.03;;;;;;;24.28;56.72;99203.09;7317619;19;129500;-38
2023/06/17 05:36:01;;;;;;;25.95;1.85;;;;;;;24.25;57.75;99203.44;7317657;19;129384;-35
2023/06/17 05:38:27;;;;;;;72.53;4.50;;;;;;;24.26;56.74;99212.13;7317072;19;130764;-36
2023/06/17 05:40:52;;;;;;;36.10;2.78;;;;;;;24.27;56.82;99213.75;7316104;19;129531;-32
2023/06/17 05:43:18;;;;;;;25.52;1.90;;;;;;;24.27;57.32;99214.59;7317613;19;129096;-34
2023/06/17 05:45:44;;;;;;;29.38;2.20;;;;;;;24.19;56.79;99198.00;7315105;19;129382;-41
2023/06/17 05:48:09;;;;;;;39.63;2.57;;;;;;;24.28;56.77;99218.03;7317294;19;128967;-38
2023/06/17 05:50:35;;;;;;;45.63;3.35;;;;;;;24.23;56.80;99212.44;7315268;19;129163;-39
2023/06/17 05:53:00;;;;;;;20.52;1.77;;;;;;;24.24;57.00;99217.56;7316759;19;129821;-34
2023/06/17 05:55:26;;;;;;;44.00;3.00;;;;;;;24.21;56.91;99217.88;7315946;19;129751;-38
2023/06/17 05:57:52;;;;;;;33.23;2.27;;;;;;;24.23;57.49;99221.16;7315778;19;129367;-38
2023/06/17 06:00:22;;;;;;;29.07;2.47;;;;;;;24.25;56.73;99213.09;7315179;19;130333;-31
2023/06/17 06:02:47;;;;;;;46.33;3.13;;;;;;;24.25;57.60;99219.19;7313268;19;129614;-37
2023/06/17 06:05:13;;;;;;;36.90;2.53;;;;;;;24.26;56.59;99217.38;7314059;19;129024;-38
2023/06/17 06:07:40;;;;;;;26.13;2.00;;;;;;;24.25;56.56;99224.44;7314997;19;129237;-40
2023/06/17 06:10:15;;;;;;;53.65;3.38;;;;;;;24.25;56.79;99213.09;7313767;19;130259;-38
2023/06/17 06:12:41;;;;;;;23.25;2.03;;;;;;;24.26;57.15;99215.56;7316714;19;129355;-37
2023/06/17 06:15:07;;;;;;;51.67;3.37;;;;;;;24.25;57.16;99218.34;7315478;19;129417;-36
2023/06/17 06:17:33;;;;;;;39.08;2.58;;;;;;;24.17;57.29;99200.81;7314886;19;129408;-38
2023/06/17 06:19:58;;;;;;;30.08;2.30;;;;;;;24.23;56.93;99221.16;7317102;19;129414;-35
2023/06/17 06:22:24;;;;;;;28.77;2.17;;;;;;;24.17;57.04;99205.22;7313309;19;129328;-35
2023/06/17 06:24:49;;;;;;;40.20;2.77;;;;;;;24.24;57.49;99216.72;7315386;19;128954;-37
2023/06/17 06:27:15;;;;;;;33.92;2.35;;;;;;;24.25;57.23;99221.81;7312777;19;129855;-36
2023/06/17 06:29:40;;;;;;;6.13;0.73;;;;;;;24.21;57.23;99219.69;7316066;19;130345;-35
2023/06/17 06:32:06;;;;;;;48.80;3.50;;;;;;;24.11;57.37;99208.53;7313076;19;129134;-34
2023/06/17 06:34:32;;;;;;;49.55;3.25;;;;;;;24.22;57.63;99227.41;7313455;19;129662;-36
2023/06/17 06:36:58;;;;;;;82.55;5.07;;;;;;;24.24;57.14;99232.50;7312358;19;129073;-44
2023/06/17 06:39:24;;;;;;;15.07;1.20;;;;;;;24.24;57.51;99221.97;7315084;19;129644;-35
2023/06/17 06:41:50;;;;;;;30.58;2.15;;;;;;;24.22;57.14;99232.66;7313677;19;130318;-38
2023/06/17 06:44:16;;;;;;;48.77;3.33;;;;;;;24.25;57.23;99229.69;7311640;19;129254;-39
2023/06/17 06:46:41;;;;;;;30.23;2.17;;;;;;;24.23;57.20;99229.03;7312974;19;128882;-42
2023/06/17 06:49:07;;;;;;;5.53;0.77;;;;;;;24.27;56.67;99234.78;7314247;19;130025;-34
2023/06/17 06:51:32;;;;;;;33.93;2.47;;;;;;;24.22;56.27;99227.41;7313736;19;130595;-35
2023/06/17 06:53:58;;;;;;;29.20;2.50;;;;;;;24.24;57.10;99232.50;7313320;19;129461;-41
2023/06/17 06:56:24;;;;;;;26.83;1.93;;;;;;;24.22;56.65;99231.81;7314399;19;128845;-37
2023/06/17 06:58:49;;;;;;;26.17;2.10;;;;;;;24.24;56.79;99233.31;7313510;19;130805;-38
2023/06/17 07:01:15;;;;;;;33.97;2.67;;;;;;;24.23;57.08;99225.56;7313113;19;129767;-43
2023/06/17 07:03:41;;;;;;;33.17;2.63;;;;;;;24.21;57.36;99236.25;7314169;19;129323;-39
2023/06/17 07:06:06;;;;;;;39.13;2.80;;;;;;;24.24;57.39;99233.31;7314026;19;129006;-42
2023/06/17 07:08:31;;;;;;;20.00;1.77;;;;;;;24.23;56.69;99238.72;7314971;19;131089;-41
2023/06/17 07:10:57;;;;;;;29.33;2.23;;;;;;;24.22;57.39;99239.72;7313945;19;129472;-42
2023/06/17 07:13:22;;;;;;;37.30;2.85;;;;;;;24.12;57.06;99218.88;7313724;19;129743;-44
2023/06/17 07:15:47;;;;;;;23.93;2.20;;;;;;;24.21;56.89;99236.25;7315293;19;128939;-39
2023/06/17 07:18:13;;;;;;;27.67;2.33;;;;;;;24.25;57.23;99242.84;7312770;19;129037;-41
2023/06/17 07:20:38;;;;;;;44.77;3.60;;;;;;;24.23;57.30;99242.16;7314122;19;129419;-42
2023/06/17 07:23:04;;;;;;;37.65;2.95;;;;;;;24.23;57.05;99242.16;7310911;19;128956;-38
2023/06/17 07:25:29;;;;;;;28.00;2.25;;;;;;;24.22;57.33;99235.28;7314710;19;128895;-40
2023/06/17 07:27:59;;;;;;;36.55;2.58;;;;;;;24.20;56.75;99239.88;7311657;19;129557;-42
2023/06/17 07:30:26;;;;;;;32.03;2.70;;;;;;;24.21;57.47;99235.44;7314126;19;131257;-44
2023/06/17 07:32:52;;;;;;;39.08;2.85;;;;;;;24.21;56.84;99238.09;7312998;19;129605;-43
2023/06/17 07:35:18;;;;;;;8.83;1.50;;;;;;;24.21;57.17;99238.88;7315050;19;130364;-42
2023/06/17 07:37:43;;;;;;;22.90;2.05;;;;;;;24.21;57.11;99238.88;7310042;19;131030;-40
2023/06/17 07:40:10;;;;;;;28.97;2.43;;;;;;;24.25;57.64;99237.56;7314061;19;129252;-37
2023/06/17 07:42:37;;;;;;;37.97;3.03;;;;;;;24.18;57.51;99243.66;7310593;19;129793;-43
2023/06/17 07:45:04;;;;;;;34.67;3.42;;;;;;;24.19;56.66;99243.50;7315002;19;129035;-42
2023/06/17 07:47:30;;;;;;;47.97;3.47;;;;;;;24.22;56.62;99242.34;7308049;19;130305;-37
2023/06/17 07:49:55;;;;;;;39.70;3.23;;;;;;;24.24;56.63;99235.13;7314048;19;129699;-42
2023/06/17 07:52:21;;;;;;;27.60;2.55;;;;;;;24.24;57.01;99237.75;7312704;19;129416;-44
2023/06/17 07:54:47;;;;;;;26.03;2.30;;;;;;;24.23;56.64;99236.09;7313529;19;129078;-40
2023/06/17 07:57:13;;;;;;;26.45;2.53;;;;;;;24.22;57.00;99240.53;7310017;19;131022;-41
2023/06/17 07:59:40;;;;;;;30.87;2.87;;;;;;;24.16;57.54;99235.94;7312907;19;129351;-44
2023/06/17 08:02:06;;;;;;;31.25;2.85;;;;;;;24.19;57.08;99246.13;7311070;19;129247;-42
2023/06/17 08:04:32;;;;;;;16.30;1.80;;;;;;;24.24;56.99;99241.19;7313303;19;129227;-34
2023/06/17 08:06:57;;;;;;;43.53;3.47;;;;;;;24.23;57.05;99242.16;7310481;19;129028;-37
2023/06/17 08:09:22;;;;;;;25.87;2.33;;;;;;;24.13;57.46;99220.50;7312733;19;129833;-41
2023/06/17 08:11:48;;;;;;;27.77;2.50;;;;;;;24.22;56.94;99235.28;7312131;19;129418;-35
2023/06/17 08:14:14;;;;;;;33.27;3.07;;;;;;;24.25;56.91;99245.47;7313311;19;129101;-36
2023/06/17 08:16:39;;;;;;;21.55;2.55;;;;;;;24.21;57.32;99233.63;7311871;19;130274;-39
2023/06/17 08:19:05;;;;;;;38.63;3.40;;;;;;;24.11;57.01;99219.84;7312738;19;129158;-38
2023/06/17 08:21:30;;;;;;;26.80;2.28;;;;;;;24.23;57.04;99236.91;7311265;19;128867;-34
2023/06/17 08:23:55;;;;;;;27.58;2.58;;;;;;;24.23;56.69;99239.53;7312301;19;129356;-36
2023/06/17 08:26:20;;;;;;;26.05;3.10;;;;;;;24.20;56.55;99237.25;7310225;19;129775;-38
2023/06/17 08:28:46;;;;;;;59.23;4.90;;;;;;;24.10;57.27;99212.97;7312510;19;129556;-38
2023/06/17 08:31:11;;;;;;;11.30;1.80;;;;;;;24.21;56.62;99244.13;7310589;19;129192;-36
2023/06/17 08:33:37;;;;;;;49.60;3.67;;;;;;;24.11;56.71;99219.84;7312548;19;128969;-36
2023/06/17 08:36:02;;;;;;;36.25;2.85;;;;;;;24.24;57.24;99243.00;7311530;19;129354;-38
2023/06/17 08:38:28;;;;;;;38.87;3.27;;;;;;;24.20;57.12;99237.25;7312742;19;129191;-37
2023/06/17 08:40:53;;;;;;;25.73;2.47;;;;;;;24.23;56.76;99229.03;7311456;19;129176;-32
2023/06/17 08:43:20;;;;;;;25.70;2.83;;;;;;;24.22;56.63;99230.03;7310128;19;129566;-36
2023/06/17 08:45:51;;;;;;;49.53;3.67;;;;;;;24.23;56.88;99231.66;7310227;19;129220;-34
2023/06/17 08:48:17;;;;;;;21.33;2.67;;;;;;;24.20;56.83;99232.00;7312275;19;129492;-37
2023/06/17 08:50:45;;;;;;;51.22;3.88;;;;;;;24.24;56.74;99232.50;7311626;19;129686;-38
2023/06/17 08:53:13;;;;;;;27.10;2.60;;;;;;;24.22;57.55;99234.47;7313526;19;129610;-33
2023/06/17 08:55:38;;;;;;;34.95;3.10;;;;;;;24.21;57.07;99232.81;7309872;19;129214;-37
2023/06/17 08:58:05;;;;;;;42.57;3.50;;;;;;;24.20;56.95;99237.25;7312241;19;130512;-40
2023/06/17 09:00:30;;;;;;;54.78;4.78;;;;;;;24.23;57.49;99225.56;7316910;19;128967;-39
2023/06/17 09:02:59;;;;;;;17.57;2.03;;;;;;;24.21;56.95;99227.56;7316714;19;129034;-33
2023/06/17 09:05:25;;;;;;;40.00;3.53;;;;;;;24.22;56.73;99224.78;7317567;19;129272;-40
2023/06/17 09:07:50;;;;;;;34.97;2.87;;;;;;;24.23;57.66;99222.94;7319522;19;130332;-36
2023/06/17 09:10:15;;;;;;;41.63;3.23;;;;;;;24.20;57.02;99212.78;7318187;19;129009;-35
2023/06/17 09:12:41;;;;;;;18.95;2.25;;;;;;;24.21;57.49;99217.88;7317555;19;129004;-39
2023/06/17 09:15:13;;;;;;;34.40;2.83;;;;;;;24.23;56.77;99212.44;7319029;19;130668;-35
2023/06/17 09:17:39;;;;;;;38.10;3.33;;;;;;;24.14;57.43;99193.25;7316929;19;129182;-37
2023/06/17 09:20:13;;;;;;;19.63;2.20;;;;;;;24.22;57.38;99208.19;7319972;19;128777;-32
2023/06/17 09:22:43;;;;;;;27.13;2.75;;;;;;;24.22;57.00;99213.44;7315195;19;129002;-36
2023/06/17 09:25:11;;;;;;;33.95;3.03;;;;;;;24.18;56.88;99205.06;7317303;19;129147;-38
2023/06/17 09:27:48;;;;;;;40.67;3.25;;;;;;;24.20;57.26;99210.97;7316182;19;129185;-36
2023/06/17 09:30:14;;;;;;;41.15;3.05;;;;;;;24.20;56.76;99203.09;7319004;19;129799;-38
2023/06/17 09:32:40;;;;;;;20.85;2.03;;;;;;;24.22;56.81;99209.00;7318543;19;130319;-41
2023/06/17 09:35:15;;;;;;;9.88;1.75;;;;;;;24.20;57.89;99204.91;7317814;19;129664;-35
2023/06/17 09:37:48;;;;;;;25.30;2.55;;;;;;;24.21;57.07;99212.59;7315580;19;129391;-36
2023/06/17 09:40:14;;;;;;;33.80;3.00;;;;;;;24.18;57.01;99201.63;7317686;19;128938;-38
2023/06/17 09:42:42;;;;;;;34.47;2.83;;;;;;;24.19;57.61;99204.09;7316603;19;129159;-45
2023/06/17 09:45:11;;;;;;;26.00;2.40;;;;;;;24.20;57.60;99195.22;7318330;19;131461;-39
2023/06/17 09:47:37;;;;;;;26.33;2.45;;;;;;;24.21;57.56;99201.31;7315442;19;130699;-34
2023/06/17 09:50:12;;;;;;;38.55;3.17;;;;;;;24.23;57.00;99194.06;7317903;19;128856;-34
2023/06/17 09:52:38;;;;;;;43.20;3.70;;;;;;;24.20;57.11;99189.97;7317629;19;130003;-39
2023/06/17 09:55:05;;;;;;;27.30;2.60;;;;;;;24.22;57.25;99193.25;7318032;19;129268;-38
2023/06/17 09:57:31;;;;;;;23.52;2.38;;;;;;;24.22;57.41;99192.44;7316122;19;129238;-30
2023/06/17 10:00:00;;;;;;;20.00;2.13;;;;;;;24.19;56.99;99188.34;7317487;19;128909;-39
2023/06/17 10:02:26;;;;;;;40.97;3.38;;;;;;;24.20;57.63;99195.22;7315826;19;129477;-35
2023/06/17 10:04:52;;;;;;;23.53;2.30;;;;;;;24.19;57.34;99188.34;7317720;19;129383;-34
2023/06/17 10:07:23;;;;;;;24.30;2.20;;;;;;;24.20;57.12;99189.97;7315037;19;130984;-37
2023/06/17 10:09:49;;;;;;;12.65;1.80;;;;;;;24.12;57.19;99181.28;7315972;19;129023;-35
2023/06/17 10:12:16;;;;;;;49.70;3.77;;;;;;;24.21;57.65;99193.44;7314949;19;128829;-35
2023/06/17 10:14:42;;;;;;;27.52;2.13;;;;;;;24.17;57.13;99194.72;7317034;19;129275;-38
2023/06/17 10:17:09;;;;;;;13.23;2.00;;;;;;;24.17;57.19;99200.81;7312660;19;129092;-36
2023/06/17 10:19:37;;;;;;;21.60;2.13;;;;;;;24.17;57.61;99200.81;7317179;19;129614;-39
2023/06/17 10:22:07;;;;;;;53.35;3.67;;;;;;;24.19;57.81;99196.22;7314839;19;129330;-36
2023/06/17 10:24:34;;;;;;;25.40;2.35;;;;;;;24.18;57.10;99191.94;7317479;19;129032;-34
2023/06/17 10:27:03;;;;;;;41.72;3.22;;;;;;;24.17;57.15;99195.56;7313919;19;129868;-40
2023/06/17 10:29:29;;;;;;;21.40;2.15;;;;;;;24.19;57.00;99193.59;7316286;19;129232;-32
2023/06/17 10:31:54;;;;;;;54.83;3.77;;;;;;;24.19;57.34;99187.50;7315171;19;129561;-37
2023/06/17 10:34:21;;;;;;;35.25;3.15;;;;;;;24.19;57.73;99184.88;7316298;19;129318;-43
2023/06/17 10:36:51;;;;;;;14.07;1.70;;;;;;;24.22;57.33;99189.78;7314971;19;129388;-37
2023/06/17 10:39:17;;;;;;;23.55;2.10;;;;;;;24.20;56.94;99184.72;7316262;19;129327;-36
2023/06/17 10:41:42;;;;;;;30.00;2.70;;;;;;;24.20;56.86;99179.47;7314677;19;129711;-38
2023/06/17 10:44:20;;;;;;;40.77;3.27;;;;;;;24.20;57.62;99173.38;7316296;19;130008;-34
2023/06/17 10:46:49;;;;;;;27.92;2.40;;;;;;;24.17;57.33;99182.41;7315282;19;129143;-35
2023/06/17 10:49:15;;;;;;;26.25;2.75;;;;;;;24.14;57.28;99169.63;7316074;19;128881;-39
2023/06/17 10:51:47;;;;;;;22.73;2.33;;;;;;;24.19;57.59;99177.84;7315013;19;128970;-37
2023/06/17 10:54:13;;;;;;;35.50;2.88;;;;;;;24.14;57.63;99171.44;7315978;19;129047;-40
2023/06/17 10:56:50;;;;;;;35.03;2.90;;;;;;;24.20;57.32;99174.22;7315031;19;129633;-34
2023/06/17 10:59:24;;;;;;;24.08;2.20;;;;;;;24.18;57.94;99176.16;7316528;19;128985;-38
2023/06/17 11:01:49;;;;;;;22.13;2.08;;;;;;;24.19;57.13;99175.22;7315414;19;128870;-36
2023/06/17 11:04:15;;;;;;;22.33;2.00;;;;;;;24.17;57.44;99166.66;7316742;19;130421;-37
2023/06/17 11:06:45;;;;;;;37.63;2.90;;;;;;;24.18;57.55;99176.16;7314814;19;129527;-32
2023/06/17 11:09:11;;;;;;;17.85;1.98;;;;;;;24.07;57.17;99160.75;7315614;19;129217;-38
2023/06/17 11:11:36;;;;;;;22.53;2.20;;;;;;;24.16;57.38;99166.84;7315078;19;129007;-38
2023/06/17 11:14:02;;;;;;;25.02;2.30;;;;;;;24.16;57.17;99177.34;7314594;19;129405;-38
2023/06/17 11:16:29;;;;;;;36.83;3.03;;;;;;;24.19;57.18;99169.13;7313678;19;129604;-36